Time;durP1;ratioP1;P1;durP2;ratioP2;P2;SDS_P1;SDS_P2;PMS_P1;PMS_P2;Temp;Humidity;BMP_temperature;BMP_pressure;BME280_temperature;BME280_humidity;BME280_pressure;Samples;Min_cycle;Max_cycle;Signal;HPM_P1;HPM_P2
2021/06/29 02:48:44;;;;;;;4.57;4.18;;;18.10;99.90;;;;;;4907825;23;87007;-83
2021/06/29 02:51:10;;;;;;;4.30;4.00;;;18.10;99.90;;;;;;4895685;28;86931;-83
2021/06/29 02:53:36;;;;;;;4.72;4.32;;;18.20;99.90;;;;;;4878464;28;87030;-85
2021/06/29 02:56:01;;;;;;;5.97;4.22;;;18.10;99.90;;;;;;4874757;29;86866;-84
2021/06/29 02:58:27;;;;;;;4.78;4.38;;;18.20;99.90;;;;;;4890857;28;86356;-85
2021/06/29 03:00:53;;;;;;;4.30;3.90;;;18.20;99.90;;;;;;4875455;28;86982;-85
2021/06/29 03:03:19;;;;;;;5.35;4.15;;;18.30;99.90;;;;;;4894024;28;86453;-85
2021/06/29 03:05:44;;;;;;;4.40;4.00;;;18.40;99.90;;;;;;4892891;28;88072;-85
2021/06/29 03:08:10;;;;;;;4.95;4.45;;;18.30;99.90;;;;;;4895276;28;87115;-86
2021/06/29 03:10:36;;;;;;;4.47;3.92;;;18.30;99.90;;;;;;4894094;28;86885;-84
2021/06/29 03:13:01;;;;;;;4.72;4.28;;;18.20;99.90;;;;;;4901291;28;86418;-86
2021/06/29 03:15:28;;;;;;;4.43;4.03;;;18.20;99.90;;;;;;4876754;29;87308;-86
2021/06/29 03:17:53;;;;;;;4.18;3.88;;;18.10;99.90;;;;;;4888439;28;87878;-84
2021/06/29 03:20:19;;;;;;;4.40;4.00;;;18.20;99.90;;;;;;4893966;28;87015;-86
2021/06/29 03:22:46;;;;;;;4.05;3.70;;;18.20;99.90;;;;;;4895926;28;86372;-85
2021/06/29 03:25:12;;;;;;;4.47;4.07;;;18.20;99.90;;;;;;4894724;28;88230;-85
2021/06/29 03:27:38;;;;;;;4.38;4.07;;;18.20;99.90;;;;;;4893651;28;87258;-86
2021/06/29 03:30:08;;;;;;;5.63;4.05;;;18.20;99.90;;;;;;4894163;28;87953;-85
2021/06/29 03:32:34;;;;;;;4.22;3.67;;;18.10;99.90;;;;;;4895536;28;86466;-85
2021/06/29 03:35:02;;;;;;;4.40;4.03;;;18.00;99.90;;;;;;4895495;28;88001;-85
2021/06/29 03:37:28;;;;;;;4.43;4.07;;;18.00;99.90;;;;;;4893413;28;87004;-85
2021/06/29 03:39:54;;;;;;;4.78;4.15;;;18.10;99.90;;;;;;4895639;28;86587;-84
2021/06/29 03:42:20;;;;;;;4.68;4.28;;;18.00;99.90;;;;;;4890726;28;87006;-85
2021/06/29 03:44:46;;;;;;;6.95;5.20;;;18.10;99.90;;;;;;4895294;28;87549;-86
2021/06/29 03:47:14;;;;;;;4.85;4.43;;;18.00;99.90;;;;;;4898759;28;87270;-86
2021/06/29 03:49:39;;;;;;;5.15;4.40;;;18.00;99.90;;;;;;4900279;28;86782;-86
2021/06/29 03:52:05;;;;;;;5.10;4.60;;;18.00;99.90;;;;;;4890486;28;87533;-86
2021/06/29 03:54:31;;;;;;;5.82;5.22;;;18.00;99.90;;;;;;4892067;28;87952;-84
2021/06/29 03:56:57;;;;;;;6.13;5.53;;;18.00;99.90;;;;;;4886436;28;88620;-83
2021/06/29 03:59:28;;;;;;;6.75;5.30;;;18.10;99.90;;;;;;4882545;28;86392;-87
2021/06/29 04:01:54;;;;;;;9.52;5.30;;;18.20;99.90;;;;;;4886833;28;86799;-86
2021/06/29 04:04:19;;;;;;;7.13;6.03;;;18.20;99.90;;;;;;4890968;28;87464;-84
2021/06/29 04:06:45;;;;;;;6.75;5.82;;;18.30;99.90;;;;;;4892728;28;86852;-85
2021/06/29 04:09:11;;;;;;;5.90;5.40;;;18.30;99.90;;;;;;4890104;28;87512;-86
2021/06/29 04:11:36;;;;;;;8.55;5.20;;;18.30;99.90;;;;;;4889691;28;86240;-86
2021/06/29 04:14:04;;;;;;;5.93;5.30;;;18.20;99.90;;;;;;4894021;28;86910;-87
2021/06/29 04:16:29;;;;;;;5.95;5.43;;;18.20;99.90;;;;;;4888577;28;86863;-86
2021/06/29 04:18:55;;;;;;;5.40;4.70;;;18.10;99.90;;;;;;4890557;28;87737;-85
2021/06/29 04:21:21;;;;;;;5.30;4.55;;;18.10;99.90;;;;;;4892487;28;86998;-85
2021/06/29 04:23:46;;;;;;;4.65;4.25;;;18.00;99.90;;;;;;4889948;28;86853;-85
2021/06/29 04:26:16;;;;;;;6.38;4.53;;;18.00;99.90;;;;;;4877081;28;87063;-87
2021/06/29 04:32:05;;;;;;;5.15;4.55;;;18.20;99.90;;;;;;4885237;28;86808;-86
2021/06/29 04:34:31;;;;;;;5.82;4.72;;;18.20;99.90;;;;;;4897638;28;86793;-88
2021/06/29 04:36:57;;;;;;;5.93;5.28;;;18.20;99.90;;;;;;4897829;28;87944;-86
2021/06/29 04:39:23;;;;;;;4.55;4.15;;;18.20;99.90;;;;;;4896697;28;86677;-85
2021/06/29 04:41:48;;;;;;;6.47;4.20;;;18.20;99.90;;;;;;4896115;28;86746;-85
2021/06/29 04:44:14;;;;;;;4.82;4.32;;;18.10;99.90;;;;;;4897971;28;88634;-83
2021/06/29 04:46:40;;;;;;;5.28;4.05;;;17.80;99.90;;;;;;4894160;28;90527;-84
2021/06/29 04:49:06;;;;;;;4.60;4.20;;;17.70;99.90;;;;;;4879744;29;86630;-85
2021/06/29 04:51:31;;;;;;;5.65;4.18;;;17.80;99.90;;;;;;4877334;29;87403;-84
2021/06/29 04:53:57;;;;;;;6.00;4.93;;;17.80;99.90;;;;;;4876307;29;86981;-83
2021/06/29 04:56:24;;;;;;;6.93;5.10;;;17.80;99.90;;;;;;4876207;29;87010;-86
2021/06/29 04:58:57;;;;;;;6.40;4.68;;;17.70;99.90;;;;;;4879201;29;86795;-84
2021/06/29 05:01:23;;;;;;;5.55;4.55;;;17.50;99.90;;;;;;4878226;29;86113;-84
2021/06/29 05:03:49;;;;;;;5.63;4.47;;;17.40;99.90;;;;;;4878886;29;88129;-83
2021/06/29 05:06:15;;;;;;;3.95;3.20;;;17.40;99.90;;;;;;4878472;29;86909;-84
2021/06/29 05:08:42;;;;;;;3.50;2.83;;;17.20;99.90;;;;;;4878218;29;87770;-85
2021/06/29 05:14:30;;;;;;;3.67;2.78;;;17.80;99.90;;;;;;4874745;29;86882;-85
2021/06/29 05:16:55;;;;;;;4.88;2.75;;;17.80;99.90;;;;;;4878450;29;86733;-85
2021/06/29 05:19:21;;;;;;;3.28;2.97;;;17.90;99.90;;;;;;4881014;29;86994;-82
2021/06/29 05:21:47;;;;;;;3.38;3.08;;;18.40;99.90;;;;;;4881592;29;86628;-84
2021/06/29 05:24:13;;;;;;;3.60;3.17;;;18.50;99.90;;;;;;4879369;29;87286;-84
2021/06/29 05:26:39;;;;;;;4.32;3.33;;;18.50;99.90;;;;;;4878787;29;86387;-85
2021/06/29 05:29:05;;;;;;;5.05;3.53;;;18.50;99.90;;;;;;4865944;29;86420;-83
2021/06/29 05:31:32;;;;;;;5.18;4.13;;;18.30;99.90;;;;;;4886898;28;86767;-85
2021/06/29 05:33:57;;;;;;;4.82;3.80;;;18.30;99.90;;;;;;4870489;29;89326;-83
2021/06/29 05:36:24;;;;;;;5.90;3.90;;;18.30;99.90;;;;;;4871324;28;88371;-83
2021/06/29 05:38:49;;;;;;;4.20;3.65;;;18.30;99.90;;;;;;4859177;29;87214;-84
2021/06/29 05:41:15;;;;;;;3.97;3.13;;;18.30;99.90;;;;;;4876667;28;86542;-85
2021/06/29 05:43:41;;;;;;;3.97;3.58;;;18.40;99.90;;;;;;4878405;29;87262;-84
2021/06/29 05:46:06;;;;;;;4.55;3.35;;;18.60;99.90;;;;;;4878070;28;87910;-85
2021/06/29 05:48:33;;;;;;;3.90;3.50;;;18.60;99.90;;;;;;4879138;28;86912;-85
2021/06/29 05:51:00;;;;;;;5.60;4.88;;;19.10;99.90;;;;;;4874998;28;86232;-85
2021/06/29 05:53:27;;;;;;;4.90;3.85;;;18.80;99.90;;;;;;4869308;28;87024;-85
2021/06/29 05:55:53;;;;;;;4.90;3.05;;;18.90;99.90;;;;;;4869452;29;87055;-84
2021/06/29 05:58:19;;;;;;;3.42;3.00;;;19.00;99.90;;;;;;4871613;29;88041;-85
2021/06/29 06:00:45;;;;;;;2.63;2.20;;;19.00;99.90;;;;;;4874391;29;87011;-85
2021/06/29 06:03:11;;;;;;;3.22;2.47;;;18.90;99.90;;;;;;4867552;29;88130;-84
2021/06/29 06:05:37;;;;;;;2.65;2.30;;;18.80;99.90;;;;;;4868959;29;86815;-84
2021/06/29 06:08:03;;;;;;;3.65;2.30;;;18.80;99.90;;;;;;4866615;29;86933;-85
2021/06/29 06:10:29;;;;;;;2.45;2.25;;;18.60;99.90;;;;;;4869768;29;86778;-83
2021/06/29 06:12:54;;;;;;;2.17;2.00;;;18.60;99.90;;;;;;4871943;29;87463;-84
2021/06/29 06:15:20;;;;;;;1.90;1.80;;;18.50;99.90;;;;;;4879208;28;86266;-85
2021/06/29 06:17:46;;;;;;;2.33;2.22;;;18.50;99.90;;;;;;4885865;28;86836;-86
2021/06/29 06:20:12;;;;;;;1.90;1.80;;;18.50;99.90;;;;;;4873635;29;87650;-86
2021/06/29 06:22:38;;;;;;;2.33;2.22;;;18.70;99.90;;;;;;4876178;29;88668;-85
2021/06/29 06:25:05;;;;;;;2.13;2.00;;;18.80;99.90;;;;;;4887032;28;87143;-86
2021/06/29 06:27:31;;;;;;;2.03;1.85;;;18.80;99.90;;;;;;4872767;29;87038;-86
2021/06/29 06:29:57;;;;;;;3.80;3.60;;;18.30;99.90;;;;;;4874760;29;86914;-85
2021/06/29 06:32:23;;;;;;;3.85;3.65;;;;;;;;;;4882695;28;87254;-84
2021/06/29 06:34:49;;;;;;;3.13;2.30;;;19.00;99.90;;;;;;4875932;29;86876;-85
2021/06/29 06:37:14;;;;;;;2.10;1.90;;;19.40;99.90;;;;;;4874956;29;86926;-85
2021/06/29 06:39:40;;;;;;;2.00;1.80;;;19.40;99.90;;;;;;4870472;28;86460;-84
2021/06/29 06:42:06;;;;;;;3.65;3.42;;;20.10;99.90;;;;;;4868531;29;87703;-83
2021/06/29 06:44:32;;;;;;;2.08;1.50;;;19.60;99.90;;;;;;4873972;29;88048;-84
2021/06/29 06:46:57;;;;;;;2.42;1.50;;;19.60;99.90;;;;;;4872471;28;87437;-85
2021/06/29 06:49:23;;;;;;;1.80;1.70;;;19.60;99.90;;;;;;4870355;29;86761;-82
2021/06/29 06:51:49;;;;;;;3.72;3.53;;;19.90;99.90;;;;;;4872518;29;86626;-84
2021/06/29 06:54:14;;;;;;;1.80;1.70;;;19.50;99.90;;;;;;4877052;29;86239;-84
2021/06/29 06:56:40;;;;;;;3.40;3.20;;;;;;;;;;4880379;28;87431;-84
2021/06/29 06:59:06;;;;;;;2.03;1.67;;;19.40;99.90;;;;;;4883365;28;88065;-84
2021/06/29 07:01:32;;;;;;;1.70;1.60;;;19.40;99.90;;;;;;4878668;29;86936;-84
2021/06/29 07:03:58;;;;;;;2.67;1.70;;;19.40;99.90;;;;;;4873745;29;86888;-83
2021/06/29 07:06:23;;;;;;;1.88;1.63;;;19.60;99.90;;;;;;4870047;29;86921;-84
2021/06/29 07:08:49;;;;;;;1.80;1.70;;;19.60;99.90;;;;;;4877298;28;87142;-86
2021/06/29 07:11:15;;;;;;;1.70;1.60;;;19.60;99.90;;;;;;4858287;29;88068;-85
2021/06/29 07:13:41;;;;;;;1.90;1.80;;;19.70;99.90;;;;;;4866704;29;87794;-86
2021/06/29 07:16:07;;;;;;;1.35;1.27;;;19.80;99.90;;;;;;4877455;29;86921;-85
2021/06/29 07:18:33;;;;;;;1.85;1.70;;;19.80;99.90;;;;;;4868845;29;87056;-85
2021/06/29 07:20:59;;;;;;;1.60;1.50;;;20.00;99.90;;;;;;4873201;29;87011;-85
2021/06/29 07:23:25;;;;;;;1.90;1.75;;;20.20;99.90;;;;;;4878186;29;86959;-85
2021/06/29 07:25:50;;;;;;;2.70;1.90;;;20.30;99.90;;;;;;4877213;29;86941;-85
2021/06/29 07:28:16;;;;;;;1.70;1.60;;;20.50;99.90;;;;;;4878000;29;85982;-84
2021/06/29 07:30:42;;;;;;;2.05;1.70;;;20.80;99.90;;;;;;4882523;28;87232;-84
2021/06/29 07:33:08;;;;;;;1.60;1.50;;;21.20;99.90;;;;;;4876441;28;86967;-85
2021/06/29 07:35:34;;;;;;;3.83;3.58;;;;;;;;;;4876485;28;87742;-85
2021/06/29 07:38:00;;;;;;;1.75;1.65;;;21.30;99.90;;;;;;4879860;28;86998;-85
2021/06/29 07:40:29;;;;;;;3.40;3.20;;;21.20;99.90;;;;;;4875004;28;87049;-85
2021/06/29 07:42:56;;;;;;;2.90;2.80;;;21.60;97.50;;;;;;4863004;29;87073;-85
2021/06/29 07:45:22;;;;;;;3.05;2.85;;;21.20;99.90;;;;;;4870230;29;86635;-85
2021/06/29 07:47:48;;;;;;;3.83;3.63;;;21.90;98.70;;;;;;4874652;28;86643;-85
2021/06/29 07:50:14;;;;;;;1.88;1.70;;;21.60;98.70;;;;;;4902083;28;87133;-85
2021/06/29 07:52:39;;;;;;;2.17;1.98;;;22.10;99.90;;;;;;4887432;28;87226;-84
2021/06/29 07:55:06;;;;;;;3.80;3.50;;;22.30;97.70;;;;;;4889814;28;86833;-85
2021/06/29 07:57:32;;;;;;;2.47;2.28;;;22.20;97.70;;;;;;4888639;28;86593;-85
2021/06/29 07:59:58;;;;;;;4.20;3.90;;;22.80;96.50;;;;;;4883363;28;88196;-85
2021/06/29 08:02:24;;;;;;;3.08;2.25;;;22.30;96.30;;;;;;4891709;28;88020;-84
2021/06/29 08:04:49;;;;;;;1.88;1.75;;;22.50;96.00;;;;;;4881927;28;86953;-85
2021/06/29 08:07:15;;;;;;;2.80;2.50;;;22.70;95.70;;;;;;4892738;28;86862;-85
2021/06/29 08:09:42;;;;;;;2.63;1.95;;;22.90;95.30;;;;;;4889424;28;87034;-85
2021/06/29 08:12:08;;;;;;;2.05;1.83;;;22.80;94.40;;;;;;4893500;28;87970;-85
2021/06/29 08:14:36;;;;;;;2.33;1.90;;;22.70;94.30;;;;;;4888056;28;87008;-85
2021/06/29 08:17:02;;;;;;;1.85;1.67;;;22.90;96.10;;;;;;4882947;28;86384;-85
2021/06/29 08:19:28;;;;;;;3.83;3.47;;;22.60;94.70;;;;;;4889572;28;88320;-85
2021/06/29 08:21:55;;;;;;;8.57;2.35;;;22.70;94.70;;;;;;4891940;28;86992;-85
2021/06/29 08:24:20;;;;;;;3.88;2.20;;;22.90;95.30;;;;;;4887008;28;88022;-85
2021/06/29 08:26:46;;;;;;;1.80;1.70;;;23.20;94.80;;;;;;4889267;28;86518;-84
2021/06/29 08:29:12;;;;;;;2.45;1.88;;;23.40;93.70;;;;;;4869430;28;90934;-84
2021/06/29 08:31:38;;;;;;;3.65;3.35;;;23.70;92.80;;;;;;4886842;28;86988;-85
2021/06/29 08:34:05;;;;;;;3.45;3.15;;;23.50;91.80;;;;;;4881458;28;87552;-85
2021/06/29 08:36:31;;;;;;;4.72;2.03;;;23.60;92.00;;;;;;4889793;28;86812;-85
2021/06/29 08:38:57;;;;;;;1.85;1.75;;;23.70;91.60;;;;;;4889223;28;87236;-85
2021/06/29 08:41:23;;;;;;;3.35;3.10;;;24.20;91.50;;;;;;4892520;28;86827;-85
2021/06/29 08:43:51;;;;;;;3.25;3.05;;;24.10;91.80;;;;;;4884043;28;86436;-85
2021/06/29 08:46:17;;;;;;;4.00;3.70;;;;;;;;;;4891502;28;86925;-84
2021/06/29 08:48:43;;;;;;;3.20;3.03;;;24.10;91.30;;;;;;4867940;28;88732;-85
2021/06/29 08:51:09;;;;;;;3.58;3.38;;;24.30;91.00;;;;;;4873014;29;87843;-85
2021/06/29 08:53:35;;;;;;;3.47;3.28;;;24.50;90.50;;;;;;4872714;28;87126;-85
2021/06/29 08:56:02;;;;;;;3.10;3.00;;;24.20;90.40;;;;;;4872005;29;86947;-84
2021/06/29 08:58:31;;;;;;;2.15;1.95;;;24.40;90.60;;;;;;4866658;29;87252;-85
2021/06/29 09:00:57;;;;;;;3.50;3.30;;;24.40;87.00;;;;;;4869881;29;87105;-85
2021/06/29 09:03:23;;;;;;;2.03;1.83;;;24.10;87.30;;;;;;4865320;29;87042;-85
2021/06/29 09:05:52;;;;;;;3.58;3.47;;;24.40;89.00;;;;;;4870393;29;86502;-85
2021/06/29 09:08:20;;;;;;;1.92;1.83;;;24.40;89.00;;;;;;4873163;28;87344;-85
2021/06/29 09:11:16;;;;;;;3.53;3.40;;;24.60;87.40;;;;;;4870878;28;87005;-84
2021/06/29 09:14:00;;;;;;;1.90;1.80;;;24.90;83.00;;;;;;4869442;29;88282;-85
2021/06/29 09:16:26;;;;;;;3.60;3.40;;;24.90;84.80;;;;;;4867109;29;86917;-85
2021/06/29 09:18:52;;;;;;;3.60;3.30;;;25.30;85.40;;;;;;4868834;29;87013;-86
2021/06/29 09:21:18;;;;;;;1.90;1.80;;;26.00;84.70;;;;;;4868602;29;87021;-86
2021/06/29 09:23:49;;;;;;;4.00;3.80;;;27.10;74.20;;;;;;4873060;29;86865;-86
2021/06/29 09:26:29;;;;;;;2.10;1.90;;;27.30;76.60;;;;;;4871737;28;86919;-86
2021/06/29 09:29:01;;;;;;;3.15;3.05;;;28.10;71.00;;;;;;4865147;29;87294;-86
2021/06/29 09:31:29;;;;;;;3.95;3.72;;;28.80;69.50;;;;;;4874366;29;88340;-86
2021/06/29 09:33:57;;;;;;;3.50;3.40;;;31.30;63.00;;;;;;4876403;29;86995;-85
2021/06/29 09:36:32;;;;;;;4.13;3.78;;;31.50;63.80;;;;;;4873727;29;87139;-85
2021/06/29 09:38:59;;;;;;;3.55;3.45;;;32.80;58.10;;;;;;4869873;29;88333;-85
2021/06/29 09:41:30;;;;;;;3.58;3.42;;;33.30;56.30;;;;;;4863532;29;87929;-84
2021/06/29 09:44:09;;;;;;;3.83;3.72;;;34.60;53.60;;;;;;4873875;28;86803;-85
2021/06/29 09:46:39;;;;;;;3.73;3.63;;;35.40;49.20;;;;;;4872326;29;86893;-85
2021/06/29 09:49:14;;;;;;;4.00;3.80;;;35.10;49.60;;;;;;4895356;28;88214;-84
2021/06/29 09:51:54;;;;;;;3.85;3.75;;;36.30;47.60;;;;;;4901497;28;86942;-84
2021/06/29 09:54:22;;;;;;;3.47;3.38;;;37.50;44.10;;;;;;4842344;29;86385;-84
2021/06/29 09:56:52;;;;;;;4.07;3.88;;;38.60;44.20;;;;;;5517889;23;88944;-84
2021/06/29 09:59:24;;;;;;;3.70;3.60;;;40.00;41.90;;;;;;4918027;28;87458;-84
2021/06/29 10:02:04;;;;;;;3.67;3.50;;;40.20;41.50;;;;;;4922201;28;86983;-83
2021/06/29 10:04:31;;;;;;;4.38;4.18;;;40.40;39.50;;;;;;4915011;28;87895;-85
2021/06/29 10:07:18;;;;;;;4.32;4.00;;;40.10;39.30;;;;;;4913645;28;86949;-85
2021/06/29 10:09:44;;;;;;;4.40;4.10;;;40.30;38.80;;;;;;4911918;28;88157;-85
2021/06/29 10:12:09;;;;;;;4.40;4.20;;;40.50;39.30;;;;;;4907025;28;87384;-85
2021/06/29 10:14:35;;;;;;;4.53;4.07;;;41.80;39.70;;;;;;4907462;28;86548;-85
2021/06/29 10:17:02;;;;;;;4.45;4.25;;;43.10;37.50;;;;;;4898769;28;86681;-85
2021/06/29 10:21:58;;;;;;;;;;;43.60;36.40;;;;;;4912001;28;87686;-84
2021/06/29 10:24:27;;;;;;;5.20;5.00;;;44.20;34.20;;;;;;4905776;28;87439;-84
2021/06/29 10:26:56;;;;;;;5.63;5.30;;;44.90;34.10;;;;;;4911445;28;86587;-85
2021/06/29 10:29:23;;;;;;;5.30;5.00;;;45.90;33.50;;;;;;4898050;28;88299;-85
2021/06/29 10:31:51;;;;;;;5.40;5.20;;;46.70;33.30;;;;;;4903085;28;89845;-84
2021/06/29 10:34:18;;;;;;;5.20;5.00;;;47.30;31.70;;;;;;4910801;28;86795;-85
2021/06/29 10:36:50;;;;;;;5.68;5.28;;;47.30;32.50;;;;;;4913036;28;87887;-85
2021/06/29 10:39:19;;;;;;;5.53;5.25;;;47.40;31.70;;;;;;4912504;28;88661;-84
2021/06/29 10:42:00;;;;;;;6.35;5.93;;;46.80;32.60;;;;;;4919359;28;86993;-84
2021/06/29 10:44:27;;;;;;;5.70;5.50;;;47.10;32.90;;;;;;4903654;28;86827;-84
2021/06/29 10:47:24;;;;;;;5.90;5.60;;;47.10;31.00;;;;;;4916824;28;85811;-85
2021/06/29 10:49:52;;;;;;;7.15;6.55;;;47.70;30.20;;;;;;4917388;28;87281;-85
2021/06/29 10:52:23;;;;;;;5.55;5.35;;;48.50;31.00;;;;;;4918852;28;86983;-85
2021/06/29 10:54:53;;;;;;;6.20;5.80;;;47.90;30.00;;;;;;4915548;28;87594;-84
2021/06/29 10:57:36;;;;;;;6.30;5.95;;;46.80;31.00;;;;;;4915371;28;86347;-84
2021/06/29 11:00:21;;;;;;;6.72;6.32;;;46.50;30.80;;;;;;4918278;28;87379;-84
2021/06/29 11:06:10;;;;;;;6.65;6.25;;;47.60;31.40;;;;;;4914534;28;87263;-85
2021/06/29 11:08:46;;;;;;;5.45;5.25;;;48.20;30.50;;;;;;4918039;28;88340;-84
2021/06/29 11:11:13;;;;;;;6.43;6.03;;;48.00;30.10;;;;;;4917840;28;86761;-85
2021/06/29 11:13:48;;;;;;;5.85;5.50;;;47.70;30.10;;;;;;4916593;28;86164;-85
2021/06/29 11:16:14;;;;;;;5.70;5.40;;;47.50;30.90;;;;;;4898089;28;86960;-84
2021/06/29 11:18:40;;;;;;;5.70;5.40;;;46.70;30.00;;;;;;4902243;28;86725;-85
2021/06/29 11:21:16;;;;;;;5.55;5.35;;;45.90;31.50;;;;;;4916360;28;88302;-84
2021/06/29 11:23:43;;;;;;;5.35;5.15;;;46.20;31.70;;;;;;4915278;28;87609;-84
2021/06/29 11:26:11;;;;;;;5.20;4.90;;;46.60;31.80;;;;;;4914886;28;86617;-85
2021/06/29 11:28:46;;;;;;;;;;;46.70;32.10;;;;;;4923696;28;86682;-82
2021/06/29 11:31:31;;;;;;;5.32;5.00;;;45.80;32.80;;;;;;4925716;28;86303;-84
2021/06/29 11:34:06;;;;;;;5.40;5.10;;;43.80;34.10;;;;;;4920542;28;86998;-83
2021/06/29 11:36:33;;;;;;;4.65;4.35;;;42.50;35.60;;;;;;4916371;28;87139;-84
2021/06/29 11:38:59;;;;;;;4.80;4.60;;;42.40;35.40;;;;;;4912911;28;86863;-84
2021/06/29 11:41:25;;;;;;;4.97;4.78;;;42.50;34.60;;;;;;4913549;28;87258;-84
2021/06/29 11:44:08;;;;;;;4.70;4.50;;;42.90;34.80;;;;;;4914797;28;87218;-85
2021/06/29 11:46:52;;;;;;;4.70;4.50;;;43.80;33.30;;;;;;4916154;28;87728;-84
2021/06/29 11:49:44;;;;;;;4.47;4.28;;;44.20;33.30;;;;;;4901477;28;86985;-85
2021/06/29 11:52:17;;;;;;;4.65;4.35;;;43.70;33.40;;;;;;4914637;28;87248;-84
2021/06/29 11:54:50;;;;;;;4.60;4.40;;;41.80;34.60;;;;;;4921983;28;87483;-84
2021/06/29 11:57:16;;;;;;;4.50;4.30;;;39.80;36.40;;;;;;4917498;28;86671;-83
2021/06/29 11:59:43;;;;;;;3.97;3.67;;;38.10;37.80;;;;;;4917883;28;86846;-83
2021/06/29 12:02:16;;;;;;;4.40;4.20;;;35.60;41.10;;;;;;4919252;28;86734;-83
2021/06/29 12:04:55;;;;;;;4.30;3.90;;;33.60;44.10;;;;;;4917262;28;86390;-83
2021/06/29 12:07:45;;;;;;;3.78;3.58;;;32.10;46.40;;;;;;4916834;28;86632;-83
2021/06/29 12:10:13;;;;;;;3.60;3.30;;;30.80;48.30;;;;;;4916676;28;86817;-82
2021/06/29 12:12:40;;;;;;;3.30;3.10;;;29.60;49.80;;;;;;4912377;28;87683;-81
2021/06/29 12:15:27;;;;;;;3.53;3.30;;;28.90;51.10;;;;;;4913994;28;86991;-81
2021/06/29 12:17:53;;;;;;;3.85;3.58;;;28.60;52.00;;;;;;4917655;28;86670;-81
2021/06/29 12:20:22;;;;;;;3.53;3.30;;;27.70;54.80;;;;;;4913908;28;87013;-82
2021/06/29 12:22:49;;;;;;;3.45;3.13;;;27.20;55.10;;;;;;4914297;28;86710;-81
2021/06/29 12:25:28;;;;;;;2.90;2.70;;;26.30;58.00;;;;;;4913928;28;88376;-82
2021/06/29 12:28:13;;;;;;;2.83;2.70;;;25.30;59.80;;;;;;4914530;28;86279;-81
2021/06/29 12:30:58;;;;;;;2.50;2.40;;;24.10;63.90;;;;;;4915476;28;86323;-83
2021/06/29 12:33:31;;;;;;;2.85;2.47;;;23.20;64.60;;;;;;4915678;28;88169;-83
2021/06/29 12:36:16;;;;;;;2.83;2.60;;;22.20;64.20;;;;;;4933355;28;87831;-81
2021/06/29 12:38:43;;;;;;;3.20;2.60;;;21.60;64.40;;;;;;4935159;28;87658;-83
2021/06/29 12:41:35;;;;;;;7.50;3.42;;;21.30;63.80;;;;;;4934097;28;86273;-83
2021/06/29 12:44:07;;;;;;;4.55;2.92;;;21.20;63.60;;;;;;4925426;28;87234;-82
2021/06/29 12:46:44;;;;;;;2.65;2.50;;;21.70;63.00;;;;;;4914740;28;87939;-83
2021/06/29 12:49:24;;;;;;;2.60;2.50;;;22.20;59.90;;;;;;4916766;28;86380;-82
2021/06/29 12:51:56;;;;;;;3.45;2.97;;;22.60;59.10;;;;;;4914311;28;86873;-82
2021/06/29 12:54:23;;;;;;;2.50;2.40;;;22.70;58.20;;;;;;4918856;28;87607;-82
2021/06/29 12:56:52;;;;;;;3.58;2.85;;;23.40;57.70;;;;;;4918237;28;86859;-82
2021/06/29 12:59:26;;;;;;;5.32;3.10;;;23.70;57.30;;;;;;4924190;28;86850;-82
2021/06/29 13:01:55;;;;;;;2.67;2.50;;;23.50;57.30;;;;;;4924030;28;86735;-82
2021/06/29 13:04:24;;;;;;;3.03;2.88;;;23.10;58.10;;;;;;4913229;28;88232;-83
2021/06/29 13:10:19;;;;;;;3.42;2.60;;;24.10;57.00;;;;;;4915827;28;86682;-83
2021/06/29 13:12:45;;;;;;;2.80;2.63;;;24.10;57.20;;;;;;4918391;28;86790;-82
2021/06/29 13:15:14;;;;;;;3.15;2.92;;;23.90;56.20;;;;;;4917494;28;87474;-82
2021/06/29 13:17:47;;;;;;;3.15;2.80;;;23.70;57.30;;;;;;4917017;28;87882;-82
2021/06/29 13:20:20;;;;;;;2.65;2.55;;;23.00;58.80;;;;;;4917272;28;86939;-82
2021/06/29 13:22:50;;;;;;;2.88;2.67;;;22.60;60.30;;;;;;4918062;28;85598;-83
2021/06/29 13:25:36;;;;;;;2.90;2.80;;;22.50;60.90;;;;;;4916898;28;86854;-82
2021/06/29 13:28:13;;;;;;;2.90;2.70;;;22.30;62.30;;;;;;4916327;28;87282;-82
2021/06/29 13:30:40;;;;;;;3.47;3.28;;;22.00;62.50;;;;;;4916015;28;87349;-82
2021/06/29 13:33:08;;;;;;;2.67;2.58;;;21.90;62.60;;;;;;4915588;28;86320;-82
2021/06/29 13:38:58;;;;;;;3.00;2.80;;;21.80;64.10;;;;;;4915159;28;86639;-81
2021/06/29 13:45:01;;;;;;;2.50;2.40;;;21.60;64.30;;;;;;4913916;28;86339;-82
2021/06/29 13:47:29;;;;;;;2.97;2.80;;;21.50;65.90;;;;;;4911449;28;86839;-82
2021/06/29 13:50:03;;;;;;;2.60;2.50;;;21.40;66.80;;;;;;4917112;28;86385;-80
2021/06/29 13:52:29;;;;;;;2.90;2.80;;;21.30;68.40;;;;;;4917417;28;86808;-82
2021/06/29 13:55:07;;;;;;;2.92;2.63;;;21.20;70.20;;;;;;4917687;28;86658;-82
2021/06/29 13:57:33;;;;;;;2.75;2.65;;;21.10;72.50;;;;;;4915147;28;88790;-83
2021/06/29 13:59:58;;;;;;;3.92;3.08;;;20.80;73.40;;;;;;4916749;28;88739;-84
2021/06/29 14:02:28;;;;;;;3.10;2.90;;;20.80;74.40;;;;;;4917051;28;86722;-82
2021/06/29 14:04:54;;;;;;;2.72;2.50;;;20.60;76.20;;;;;;4914608;28;86636;-83
2021/06/29 14:07:20;;;;;;;3.22;3.03;;;20.60;76.60;;;;;;4917786;28;87734;-82
2021/06/29 14:09:47;;;;;;;2.78;2.67;;;20.50;73.50;;;;;;4915194;28;87096;-80
2021/06/29 14:12:27;;;;;;;2.83;2.72;;;20.70;76.40;;;;;;4922693;28;86777;-82
2021/06/29 14:15:10;;;;;;;2.95;2.85;;;20.90;76.30;;;;;;4923564;28;85655;-82
2021/06/29 14:20:59;;;;;;;2.50;2.40;;;21.20;73.30;;;;;;4915538;28;86707;-82
2021/06/29 14:26:47;;;;;;;2.70;2.60;;;21.60;73.00;;;;;;4915698;28;86500;-83
2021/06/29 14:29:12;;;;;;;3.03;2.92;;;21.90;75.30;;;;;;4918631;28;87209;-82
2021/06/29 14:31:38;;;;;;;3.03;2.92;;;22.00;73.90;;;;;;4917339;28;86927;-82
2021/06/29 14:34:04;;;;;;;2.70;2.60;;;22.10;74.80;;;;;;4901925;28;86151;-83
2021/06/29 14:36:34;;;;;;;2.88;2.67;;;22.10;74.30;;;;;;4918533;28;86823;-82
2021/06/29 14:42:22;;;;;;;2.80;2.60;;;22.00;72.40;;;;;;4917445;28;86116;-83
2021/06/29 14:44:48;;;;;;;3.05;2.90;;;22.00;71.30;;;;;;4921343;28;86591;-82
2021/06/29 14:47:14;;;;;;;3.13;3.03;;;22.00;72.50;;;;;;4910182;28;86598;-82
2021/06/29 14:49:39;;;;;;;2.83;2.63;;;21.90;72.40;;;;;;4915639;28;89075;-82
2021/06/29 14:52:07;;;;;;;2.70;2.60;;;22.00;72.40;;;;;;4916306;28;89270;-83
2021/06/29 14:54:32;;;;;;;2.92;2.83;;;22.10;72.70;;;;;;4916962;28;86410;-81
2021/06/29 15:00:35;;;;;;;2.40;2.30;;;22.00;70.90;;;;;;4913298;28;86781;-81
2021/06/29 15:03:01;;;;;;;2.63;2.53;;;22.00;72.10;;;;;;4916288;28;86393;-81
2021/06/29 15:05:27;;;;;;;2.70;2.60;;;21.90;72.20;;;;;;4916723;28;86957;-82
2021/06/29 15:07:55;;;;;;;3.10;2.90;;;21.90;71.60;;;;;;4916189;28;86267;-82
2021/06/29 15:10:21;;;;;;;3.70;2.90;;;21.90;71.60;;;;;;4916617;28;87380;-83
2021/06/29 15:12:47;;;;;;;2.83;2.72;;;21.80;72.10;;;;;;4915826;28;88003;-82
2021/06/29 15:15:17;;;;;;;2.70;2.60;;;21.60;72.80;;;;;;4916172;28;86895;-83
2021/06/29 15:17:43;;;;;;;3.65;3.45;;;21.50;73.40;;;;;;4907218;28;86741;-82
2021/06/29 15:20:19;;;;;;;3.13;2.92;;;21.40;73.50;;;;;;4913386;28;87195;-81
2021/06/29 15:22:46;;;;;;;3.30;3.10;;;21.40;74.40;;;;;;4913586;28;87042;-81
2021/06/29 15:25:13;;;;;;;3.20;2.90;;;21.30;74.50;;;;;;4916632;28;86390;-83
2021/06/29 15:27:39;;;;;;;2.70;2.60;;;21.30;74.40;;;;;;4911539;28;86294;-82
2021/06/29 15:30:08;;;;;;;2.80;2.60;;;21.20;74.90;;;;;;4914715;28;87288;-82
2021/06/29 15:33:03;;;;;;;4.13;3.70;;;21.20;74.60;;;;;;4913762;28;86111;-81
2021/06/29 15:35:29;;;;;;;3.70;3.40;;;21.20;74.90;;;;;;4898330;28;86348;-81
2021/06/29 15:37:56;;;;;;;3.92;3.25;;;21.20;74.70;;;;;;4916363;28;86660;-81
2021/06/29 15:40:28;;;;;;;2.78;2.60;;;21.30;75.20;;;;;;4919045;28;87973;-81
2021/06/29 15:42:56;;;;;;;3.40;3.20;;;21.20;74.50;;;;;;4918469;28;88046;-82
2021/06/29 15:45:31;;;;;;;2.88;2.67;;;21.20;74.30;;;;;;4913681;28;86603;-75
2021/06/29 15:48:04;;;;;;;3.20;3.10;;;21.30;75.20;;;;;;4889011;28;86931;-75
2021/06/29 15:50:29;;;;;;;3.30;3.10;;;21.50;72.10;;;;;;4888441;28;91288;-76
2021/06/29 15:53:07;;;;;;;2.92;2.83;;;21.50;72.10;;;;;;4906004;28;86954;-75
2021/06/29 15:55:33;;;;;;;3.00;2.90;;;21.20;70.70;;;;;;4906502;28;86711;-76
2021/06/29 15:57:59;;;;;;;2.80;2.70;;;21.60;71.00;;;;;;4890342;28;86455;-77
2021/06/29 16:00:25;;;;;;;1.92;1.52;;;21.50;71.00;;;;;;4905265;28;86869;-76
2021/06/29 16:02:51;;;;;;;1.40;1.30;;;21.60;71.30;;;;;;4905552;28;86948;-76
2021/06/29 16:12:27;;;;;;;1.90;1.40;;;22.20;70.60;;;;;;4922276;28;86919;-76
2021/06/29 16:14:52;;;;;;;1.67;1.58;;;22.40;70.20;;;;;;4925050;28;86844;-76
2021/06/29 16:20:43;;;;;;;1.60;1.50;;;22.50;70.50;;;;;;4923144;28;86300;-76
2021/06/29 16:23:08;;;;;;;1.50;1.40;;;22.50;70.70;;;;;;4927970;28;87265;-76
2021/06/29 16:25:34;;;;;;;2.63;1.65;;;22.60;71.30;;;;;;4928433;28;86941;-76
2021/06/29 16:28:00;;;;;;;1.55;1.40;;;22.60;72.00;;;;;;4928483;28;86753;-77
2021/06/29 16:30:25;;;;;;;1.70;1.60;;;22.70;71.20;;;;;;4928243;28;86690;-76